createdAt,value
2016-05-30T00:00:30.888Z,0
2016-05-30T00:01:30.953Z,0
2016-05-30T00:02:30.955Z,0
2016-05-30T00:03:30.693Z,0
2016-05-30T00:04:30.836Z,0
2016-05-30T00:05:31.027Z,0
2016-05-30T00:06:32.044Z,0
2016-05-30T00:07:31.422Z,0
2016-05-30T00:08:31.112Z,0
2016-05-30T00:09:31.084Z,0
2016-05-30T00:10:30.962Z,0
2016-05-30T00:12:31.013Z,0
2016-05-30T00:13:31.173Z,0
2016-05-30T00:14:30.879Z,0
2016-05-30T00:15:31.537Z,0
2016-05-30T00:16:31.087Z,0
2016-05-30T00:17:45.342Z,0
2016-05-30T00:18:31.295Z,0
2016-05-30T00:19:31.142Z,0
2016-05-30T00:20:31.332Z,0
2016-05-30T00:21:32.834Z,0
2016-05-30T00:22:32.525Z,0
2016-05-30T00:23:31.403Z,0
2016-05-30T00:24:45.486Z,0
2016-05-30T00:25:31.423Z,0
2016-05-30T00:26:31.472Z,0
2016-05-30T00:27:31.491Z,0
2016-05-30T00:28:31.323Z,0
2016-05-30T00:29:45.578Z,0
2016-05-30T00:30:31.531Z,0
2016-05-30T00:31:31.549Z,0
2016-05-30T00:32:31.567Z,0
2016-05-30T00:33:31.444Z,0
2016-05-30T00:34:31.604Z,0
2016-05-30T00:35:31.482Z,0
2016-05-30T00:36:32.000Z,0
2016-05-30T00:37:45.740Z,0
2016-05-30T00:38:31.693Z,0
2016-05-30T00:39:31.914Z,0
2016-05-30T00:40:31.730Z,0
2016-05-30T00:41:31.749Z,0
2016-05-30T00:42:31.798Z,0
2016-05-30T00:43:31.644Z,0
2016-05-30T00:44:31.803Z,0
2016-05-30T00:45:31.821Z,0
2016-05-30T00:46:31.855Z,0
2016-05-30T00:47:31.562Z,0
2016-05-30T00:48:31.892Z,0
2016-05-30T00:49:31.895Z,0
2016-05-30T00:50:31.945Z,0
2016-05-30T00:51:32.618Z,0
2016-05-30T00:52:32.028Z,0
2016-05-30T00:53:31.842Z,0
2016-05-30T00:54:32.017Z,0
2016-05-30T00:55:32.051Z,0
2016-05-30T00:56:32.070Z,0
2016-05-30T00:57:31.947Z,0
2016-05-30T00:58:32.106Z,0
2016-05-30T00:59:32.125Z,0
2016-05-30T01:00:32.142Z,0
2016-05-30T01:01:32.177Z,0
2016-05-30T01:02:32.163Z,0
2016-05-30T01:03:31.885Z,0
2016-05-30T01:04:32.232Z,0
2016-05-30T01:05:32.094Z,0
2016-05-30T01:06:33.346Z,0
2016-05-30T01:08:00.274Z,0
2016-05-30T01:08:32.305Z,0
2016-05-30T01:09:32.323Z,0
2016-05-30T01:10:32.185Z,0
2016-05-30T01:11:32.375Z,0
2016-05-30T01:12:32.378Z,0
2016-05-30T01:13:32.412Z,0
2016-05-30T01:14:32.446Z,0
2016-05-30T01:15:32.448Z,0
2016-05-30T01:16:32.155Z,0
2016-05-30T01:17:32.485Z,0
2016-05-30T01:18:46.568Z,0
2016-05-30T01:19:32.537Z,0
2016-05-30T01:20:32.415Z,0
2016-05-30T01:21:32.856Z,0
2016-05-30T01:22:32.827Z,0
2016-05-30T01:23:46.676Z,0
2016-05-30T01:24:32.645Z,0
2016-05-30T01:25:32.757Z,0
2016-05-30T01:26:32.698Z,0
2016-05-30T01:27:32.387Z,0
2016-05-30T01:28:32.718Z,0
2016-05-30T01:29:32.752Z,0
2016-05-30T01:30:32.770Z,0
2016-05-30T01:31:32.789Z,0
2016-05-30T01:32:32.635Z,0
2016-05-30T01:33:32.685Z,0
2016-05-30T01:34:32.827Z,0
2016-05-30T01:35:32.862Z,0
2016-05-30T01:36:32.771Z,0
2016-05-30T01:37:46.963Z,0
2016-05-30T01:38:32.916Z,0
2016-05-30T01:39:33.138Z,0
2016-05-30T01:40:47.050Z,0
2016-05-30T01:41:47.037Z,0
2016-05-30T01:42:32.849Z,0
2016-05-30T01:43:46.933Z,0
2016-05-30T01:44:32.886Z,0
2016-05-30T01:45:32.904Z,0
2016-05-30T01:46:32.954Z,0
2016-05-30T01:47:33.112Z,0
2016-05-30T01:48:33.131Z,0
2016-05-30T01:49:33.196Z,0
2016-05-30T01:51:01.295Z,0
2016-05-30T01:51:33.326Z,0
2016-05-30T01:52:33.845Z,0
2016-05-30T01:53:33.239Z,0
2016-05-30T01:54:33.256Z,0
2016-05-30T01:55:33.119Z,0
2016-05-30T01:56:36.292Z,0
2016-05-30T01:57:47.361Z,0
2016-05-30T01:58:33.345Z,0
2016-05-30T01:59:33.364Z,0
2016-05-30T02:00:47.448Z,0
2016-05-30T02:01:33.401Z,0
2016-05-30T02:02:33.434Z,0
2016-05-30T02:03:33.280Z,0
2016-05-30T02:04:33.143Z,0
2016-05-30T02:05:33.333Z,0
2016-05-30T02:06:48.230Z,0
2016-05-30T02:07:34.089Z,0
2016-05-30T02:08:33.545Z,0
2016-05-30T02:09:33.562Z,0
2016-05-30T02:10:33.597Z,0
2016-05-30T02:11:33.458Z,0
2016-05-30T02:12:33.633Z,0
2016-05-30T02:13:33.621Z,0
2016-05-30T02:14:47.719Z,0
2016-05-30T02:15:34.282Z,0
2016-05-30T02:16:33.707Z,0
2016-05-30T02:17:33.929Z,0
2016-05-30T02:18:33.759Z,0
2016-05-30T02:19:33.980Z,0
2016-05-30T02:20:33.312Z,0
2016-05-30T02:21:33.829Z,0
2016-05-30T02:22:33.504Z,0
2016-05-30T02:23:47.915Z,0
2016-05-30T02:24:33.853Z,0
2016-05-30T02:25:33.871Z,0
2016-05-30T02:26:47.970Z,0
2016-05-30T02:27:34.111Z,0
2016-05-30T02:29:02.086Z,0
2016-05-30T02:29:33.648Z,0
2016-05-30T02:30:48.028Z,0
2016-05-30T02:31:33.997Z,0
2016-05-30T02:32:33.858Z,0
2016-05-30T02:33:34.050Z,0
2016-05-30T02:34:34.052Z,0
2016-05-30T02:35:34.070Z,0
2016-05-30T02:36:48.232Z,0
2016-05-30T02:37:34.997Z,0
2016-05-30T02:38:34.125Z,0
2016-05-30T02:39:34.171Z,0
2016-05-30T02:40:34.217Z,0
2016-05-30T02:41:34.277Z,0
2016-05-30T02:42:34.307Z,0
2016-05-30T02:43:34.369Z,0
2016-05-30T02:44:34.390Z,0
2016-05-30T02:45:34.434Z,0
2016-05-30T02:46:34.461Z,0
2016-05-30T02:47:34.489Z,0
2016-05-30T02:48:48.605Z,0
2016-05-30T02:49:34.402Z,0
2016-05-30T02:50:34.407Z,0
2016-05-30T02:51:34.773Z,0
2016-05-30T02:52:34.623Z,0
2016-05-30T02:53:34.660Z,0
2016-05-30T02:54:34.649Z,0
2016-05-30T02:55:48.767Z,0
2016-05-30T02:56:34.532Z,0
2016-05-30T02:57:34.708Z,0
2016-05-30T02:58:34.759Z,0
2016-05-30T02:59:34.778Z,0
2016-05-30T03:00:34.782Z,0
2016-05-30T03:01:34.817Z,0
2016-05-30T03:02:34.850Z,0
2016-05-30T03:03:34.854Z,0
2016-05-30T03:04:34.873Z,0
2016-05-30T03:05:34.563Z,0
2016-05-30T03:06:34.910Z,0
2016-05-30T03:07:35.225Z,0
2016-05-30T03:08:34.945Z,0
2016-05-30T03:09:34.840Z,0
2016-05-30T03:10:49.048Z,0
2016-05-30T03:11:34.876Z,0
2016-05-30T03:12:34.864Z,0
2016-05-30T03:13:34.913Z,0
2016-05-30T03:14:48.997Z,0
2016-05-30T03:15:35.090Z,0
2016-05-30T03:16:35.109Z,0
2016-05-30T03:17:35.142Z,0
2016-05-30T03:18:35.208Z,0
2016-05-30T03:19:35.179Z,0
2016-05-30T03:20:35.213Z,0
2016-05-30T03:21:35.606Z,0
2016-05-30T03:22:35.374Z,0
2016-05-30T03:23:35.268Z,0
2016-05-30T03:24:35.114Z,0
2016-05-30T03:25:35.164Z,0
2016-05-30T03:26:35.323Z,0
2016-05-30T03:27:35.184Z,0
2016-05-30T03:28:35.391Z,0
2016-05-30T03:29:35.377Z,0
2016-05-30T03:30:35.396Z,0
2016-05-30T03:32:49.498Z,0
2016-05-30T03:33:35.451Z,0
2016-05-30T03:34:35.687Z,0
2016-05-30T03:35:35.362Z,0
2016-05-30T03:36:35.787Z,0
2016-05-30T03:37:36.024Z,0
2016-05-30T03:38:35.762Z,0
2016-05-30T03:39:49.641Z,0
2016-05-30T03:40:35.610Z,0
2016-05-30T03:41:35.629Z,0
2016-05-30T03:42:35.632Z,0
2016-05-30T03:43:35.681Z,5
2016-05-30T03:44:35.543Z,5
2016-05-30T03:45:35.546Z,5
2016-05-30T03:46:35.564Z,5
2016-05-30T03:47:35.598Z,5
2016-05-30T03:48:35.757Z,5
2016-05-30T03:49:35.775Z,5
2016-05-30T03:50:44.825Z,5
2016-05-30T03:51:35.750Z,5
2016-05-30T03:52:35.893Z,5
2016-05-30T03:53:35.896Z,5
2016-05-30T03:54:35.726Z,5
2016-05-30T03:55:35.916Z,5
2016-05-30T03:56:35.763Z,5
2016-05-30T03:57:35.969Z,5
2016-05-30T03:58:35.971Z,5
2016-05-30T03:59:50.055Z,5
2016-05-30T04:00:36.008Z,5
2016-05-30T04:01:36.042Z,5
2016-05-30T04:02:39.091Z,5
2016-05-30T04:03:35.906Z,5
2016-05-30T04:04:36.097Z,5
2016-05-30T04:05:36.146Z,5
2016-05-30T04:06:36.399Z,5
2016-05-30T04:07:36.808Z,5
2016-05-30T04:08:36.170Z,5
2016-05-30T04:09:36.204Z,5
2016-05-30T04:10:36.192Z,5
2016-05-30T04:11:36.226Z,5
2016-05-30T04:12:50.324Z,5
2016-05-30T04:13:36.261Z,5
2016-05-30T04:14:36.296Z,5
2016-05-30T04:15:36.314Z,5
2016-05-30T04:16:36.333Z,5
2016-05-30T04:17:36.039Z,5
2016-05-30T04:18:36.228Z,5
2016-05-30T04:19:36.387Z,5
2016-05-30T04:20:36.437Z,5
2016-05-30T04:21:36.142Z,5
2016-05-30T04:22:37.442Z,5
2016-05-30T04:23:36.492Z,5
2016-05-30T04:24:36.713Z,10
2016-05-30T04:25:36.357Z,10
2016-05-30T04:26:36.546Z,10
2016-05-30T04:27:36.549Z,10
2016-05-30T04:28:36.411Z,10
2016-05-30T04:29:50.651Z,10
2016-05-30T04:30:36.620Z,10
2016-05-30T04:31:36.623Z,10
2016-05-30T04:32:36.641Z,10
2016-05-30T04:33:36.690Z,10
2016-05-30T04:34:50.601Z,10
2016-05-30T04:35:50.620Z,10
2016-05-30T04:36:36.542Z,15
2016-05-30T04:37:37.358Z,15
2016-05-30T04:38:36.782Z,15
2016-05-30T04:39:36.815Z,15
2016-05-30T04:40:36.818Z,15
2016-05-30T04:41:36.525Z,15
2016-05-30T04:42:36.698Z,15
2016-05-30T04:43:36.874Z,15
2016-05-30T04:44:36.892Z,15
2016-05-30T04:45:36.925Z,15
2016-05-30T04:46:36.960Z,15
2016-05-30T04:47:36.822Z,15
2016-05-30T04:48:36.981Z,15
2016-05-30T04:49:37.000Z,15
2016-05-30T04:50:37.002Z,20
2016-05-30T04:51:37.348Z,20
2016-05-30T04:52:37.383Z,20
2016-05-30T04:53:37.088Z,25
2016-05-30T04:54:37.075Z,20
2016-05-30T04:55:37.125Z,20
2016-05-30T04:56:37.143Z,20
2016-05-30T04:57:36.974Z,20
2016-05-30T04:58:36.883Z,20
2016-05-30T04:59:37.057Z,20
2016-05-30T05:00:37.232Z,25
2016-05-30T05:01:37.079Z,25
2016-05-30T05:02:51.193Z,30
2016-05-30T05:03:37.130Z,30
2016-05-30T05:04:36.977Z,30
2016-05-30T05:05:37.339Z,30
2016-05-30T05:06:38.420Z,35
2016-05-30T05:07:37.423Z,35
2016-05-30T05:08:37.393Z,40
2016-05-30T05:09:37.256Z,40
2016-05-30T05:10:37.431Z,40
2016-05-30T05:11:37.448Z,40
2016-05-30T05:13:05.579Z,50
2016-05-30T05:13:37.486Z,55
2016-05-30T05:14:37.363Z,55
2016-05-30T05:15:37.522Z,55
2016-05-30T05:16:37.556Z,55
2016-05-30T05:17:37.575Z,55
2016-05-30T05:18:37.577Z,50
2016-05-30T05:19:37.627Z,45
2016-05-30T05:20:37.489Z,45
2016-05-30T05:21:37.851Z,45
2016-05-30T05:22:51.575Z,45
2016-05-30T05:23:37.684Z,45
2016-05-30T05:24:37.609Z,40
2016-05-30T05:25:37.752Z,40
2016-05-30T05:26:37.599Z,40
2016-05-30T05:27:37.789Z,40
2016-05-30T05:28:37.777Z,40
2016-05-30T05:29:38.013Z,40
2016-05-30T05:30:51.910Z,40
2016-05-30T05:31:37.878Z,40
2016-05-30T05:32:37.880Z,40
2016-05-30T05:33:37.883Z,40
2016-05-30T05:34:37.932Z,45
2016-05-30T05:35:37.763Z,45
2016-05-30T05:36:37.813Z,45
2016-05-30T05:37:39.753Z,50
2016-05-30T05:38:38.006Z,55
2016-05-30T05:39:38.040Z,60
2016-05-30T05:40:38.058Z,60
2016-05-30T05:41:38.062Z,60
2016-05-30T05:42:50.129Z,70
2016-05-30T05:43:38.082Z,70
2016-05-30T05:44:37.990Z,70
2016-05-30T05:45:38.134Z,80
2016-05-30T05:46:38.152Z,80
2016-05-30T05:47:38.031Z,80
2016-05-30T05:48:38.236Z,80
2016-05-30T05:49:38.067Z,80
2016-05-30T05:50:38.257Z,80
2016-05-30T05:51:38.931Z,75
2016-05-30T05:52:37.965Z,75
2016-05-30T05:53:38.311Z,70
2016-05-30T05:54:38.331Z,60
2016-05-30T05:55:38.192Z,55
2016-05-30T05:56:38.055Z,55
2016-05-30T05:57:38.104Z,55
2016-05-30T05:58:38.278Z,55
2016-05-30T05:59:38.625Z,50
2016-05-30T06:00:38.488Z,50
2016-05-30T06:01:38.474Z,50
2016-05-30T06:02:38.493Z,50
2016-05-30T06:03:38.527Z,50
2016-05-30T06:04:38.216Z,50
2016-05-30T06:05:38.563Z,45
2016-05-30T06:06:40.082Z,45
2016-05-30T06:07:38.459Z,45
2016-05-30T06:08:38.930Z,45
2016-05-30T06:09:38.480Z,40
2016-05-30T06:10:38.670Z,45
2016-05-30T06:11:38.688Z,45
2016-05-30T06:12:38.535Z,50
2016-05-30T06:13:38.568Z,50
2016-05-30T06:14:38.759Z,50
2016-05-30T06:15:38.637Z,50
2016-05-30T06:16:52.845Z,45
2016-05-30T06:17:38.798Z,50
2016-05-30T06:18:38.676Z,50
2016-05-30T06:19:38.678Z,50
2016-05-30T06:20:38.869Z,55
2016-05-30T06:21:39.481Z,65
2016-05-30T06:22:39.967Z,65
2016-05-30T06:23:38.627Z,70
2016-05-30T06:24:41.802Z,70
2016-05-30T06:25:38.819Z,85
2016-05-30T06:26:39.010Z,95
2016-05-30T06:27:38.997Z,100
2016-05-30T06:28:38.890Z,105
2016-05-30T06:29:38.908Z,110
2016-05-30T06:30:39.786Z,110
2016-05-30T06:31:39.101Z,110
2016-05-30T06:32:39.119Z,115
2016-05-30T06:33:53.219Z,110
2016-05-30T06:34:38.985Z,105
2016-05-30T06:35:42.238Z,115
2016-05-30T06:36:39.521Z,125
2016-05-30T06:37:40.055Z,135
2016-05-30T06:38:39.245Z,135
2016-05-30T06:39:39.279Z,130
2016-05-30T06:40:42.016Z,125
2016-05-30T06:41:39.300Z,125
2016-05-30T06:42:39.038Z,135
2016-05-30T06:43:39.353Z,135
2016-05-30T06:44:39.215Z,135
2016-05-30T06:45:41.733Z,140
2016-05-30T06:46:39.267Z,130
2016-05-30T06:47:39.285Z,140
2016-05-30T06:48:39.459Z,145
2016-05-30T06:49:39.354Z,150
2016-05-30T06:50:39.215Z,150
2016-05-30T06:51:39.936Z,155
2016-05-30T06:52:39.565Z,160
2016-05-30T06:53:39.411Z,160
2016-05-30T06:54:39.600Z,155
2016-05-30T06:55:39.604Z,150
2016-05-30T06:56:39.856Z,145
2016-05-30T06:57:39.859Z,140
2016-05-30T06:58:39.769Z,140
2016-05-30T06:59:39.692Z,130
2016-05-30T07:00:54.447Z,125
2016-05-30T07:01:39.588Z,125
2016-05-30T07:02:39.763Z,125
2016-05-30T07:03:39.797Z,125
2016-05-30T07:04:42.816Z,125
2016-05-30T07:05:39.678Z,130
2016-05-30T07:06:39.836Z,120
2016-05-30T07:07:39.839Z,115
2016-05-30T07:08:39.904Z,115
2016-05-30T07:09:39.751Z,110
2016-05-30T07:11:54.022Z,115
2016-05-30T07:12:39.837Z,115
2016-05-30T07:13:40.011Z,115
2016-05-30T07:14:39.858Z,115
2016-05-30T07:15:42.939Z,115
2016-05-30T07:16:42.926Z,115
2016-05-30T07:17:39.788Z,120
2016-05-30T07:18:40.104Z,120
2016-05-30T07:19:39.981Z,120
2016-05-30T07:20:43.593Z,120
2016-05-30T07:21:40.423Z,115
2016-05-30T07:22:41.098Z,110
2016-05-30T07:23:40.211Z,105
2016-05-30T07:24:54.166Z,95
2016-05-30T07:25:44.575Z,95
2016-05-30T07:26:40.297Z,95
2016-05-30T07:27:40.300Z,95
2016-05-30T07:28:40.380Z,100
2016-05-30T07:29:40.383Z,100
2016-05-30T07:31:40.841Z,110
2016-05-30T07:33:40.455Z,105
2016-05-30T07:34:55.661Z,90
2016-05-30T07:35:44.586Z,80
2016-05-30T07:36:40.558Z,60
2016-05-30T07:37:40.091Z,45
2016-05-30T07:38:54.610Z,35
2016-05-30T07:39:54.487Z,35
2016-05-30T07:40:40.585Z,35
2016-05-30T07:41:40.634Z,40
2016-05-30T07:42:40.652Z,35
2016-05-30T07:43:40.498Z,30
2016-05-30T07:44:40.518Z,30
2016-05-30T07:45:42.957Z,35
2016-05-30T07:46:40.725Z,35
2016-05-30T07:47:40.728Z,40
2016-05-30T07:48:40.637Z,45
2016-05-30T07:49:40.796Z,45
2016-05-30T07:50:43.142Z,45
2016-05-30T07:51:41.551Z,40
2016-05-30T07:52:41.116Z,35
2016-05-30T07:53:40.728Z,35
2016-05-30T07:54:40.731Z,35
2016-05-30T07:55:44.937Z,40
2016-05-30T07:56:40.940Z,40
2016-05-30T07:57:40.802Z,40
2016-05-30T07:58:40.976Z,40
2016-05-30T07:59:40.853Z,40
2016-05-30T08:00:40.856Z,40
2016-05-30T08:01:55.094Z,35
2016-05-30T08:02:41.081Z,35
2016-05-30T08:03:41.114Z,30
2016-05-30T08:04:55.180Z,30
2016-05-30T08:05:55.183Z,30
2016-05-30T08:06:41.779Z,35
2016-05-30T08:07:42.079Z,35
2016-05-30T08:08:42.144Z,35
2016-05-30T08:09:41.210Z,40
2016-05-30T08:10:41.243Z,40
2016-05-30T08:11:41.293Z,45
2016-05-30T08:12:41.263Z,45
2016-05-30T08:13:41.516Z,45
2016-05-30T08:14:41.316Z,50
2016-05-30T08:15:44.351Z,50
2016-05-30T08:16:41.385Z,50
2016-05-30T08:17:41.387Z,55
2016-05-30T08:18:55.452Z,55
2016-05-30T08:19:41.267Z,55
2016-05-30T08:20:41.457Z,55
2016-05-30T08:21:42.132Z,60
2016-05-30T08:22:41.354Z,60
2016-05-30T08:23:41.513Z,65
2016-05-30T08:24:41.545Z,65
2016-05-30T08:25:41.533Z,60
2016-05-30T08:26:41.567Z,60
2016-05-30T08:27:55.664Z,60
2016-05-30T08:28:41.464Z,60
2016-05-30T08:29:41.622Z,60
2016-05-30T08:30:41.500Z,60
2016-05-30T08:31:41.658Z,65
2016-05-30T08:32:41.380Z,70
2016-05-30T08:33:41.727Z,80
2016-05-30T08:34:41.745Z,90
2016-05-30T08:35:41.747Z,110
2016-05-30T08:36:41.547Z,120
2016-05-30T08:37:42.113Z,130
2016-05-30T08:38:42.146Z,145
2016-05-30T08:39:55.930Z,165
2016-05-30T08:40:42.808Z,170
2016-05-30T08:41:41.749Z,190
2016-05-30T08:42:55.830Z,200
2016-05-30T08:43:41.753Z,205
2016-05-30T08:44:55.850Z,205
2016-05-30T08:45:55.899Z,200
2016-05-30T08:46:42.012Z,195
2016-05-30T08:47:42.045Z,190
2016-05-30T08:48:42.064Z,185
2016-05-30T08:49:41.895Z,185
2016-05-30T08:50:42.085Z,190
2016-05-30T08:51:43.166Z,205
2016-05-30T08:52:42.512Z,215
2016-05-30T08:53:42.139Z,220
2016-05-30T08:54:42.173Z,220
2016-05-30T08:55:42.192Z,230
2016-05-30T08:56:42.039Z,235
2016-05-30T08:57:42.073Z,225
2016-05-30T08:58:41.951Z,225
2016-05-30T08:59:42.281Z,230
2016-05-30T09:00:42.299Z,230
2016-05-30T09:01:42.145Z,230
2016-05-30T09:02:42.023Z,235
2016-05-30T09:03:42.198Z,225
2016-05-30T09:04:42.092Z,225
2016-05-30T09:05:42.422Z,215
2016-05-30T09:06:42.269Z,205
2016-05-30T09:07:42.365Z,195
2016-05-30T09:08:42.478Z,190
2016-05-30T09:09:42.496Z,190
2016-05-30T09:10:42.513Z,185
2016-05-30T09:11:42.532Z,185
2016-05-30T09:12:42.441Z,180
2016-05-30T09:13:42.569Z,175
2016-05-30T09:14:42.602Z,170
2016-05-30T09:15:42.293Z,165
2016-05-30T09:16:42.639Z,160
2016-05-30T09:17:42.345Z,160
2016-05-30T09:18:42.723Z,160
2016-05-30T09:19:42.538Z,160
2016-05-30T09:20:42.572Z,155
2016-05-30T09:21:43.231Z,145
2016-05-30T09:22:43.265Z,135
2016-05-30T09:23:42.783Z,125
2016-05-30T09:24:42.661Z,115
2016-05-30T09:25:42.898Z,105
2016-05-30T09:26:42.870Z,105
2016-05-30T09:27:42.731Z,100
2016-05-30T09:28:42.921Z,90
2016-05-30T09:29:42.925Z,85
2016-05-30T09:30:42.942Z,75
2016-05-30T09:31:42.836Z,65
2016-05-30T09:32:43.011Z,60
2016-05-30T09:33:43.045Z,55
2016-05-30T09:34:43.047Z,55
2016-05-30T09:35:43.050Z,55
2016-05-30T09:36:44.036Z,50
2016-05-30T09:37:43.618Z,50
2016-05-30T09:38:57.199Z,55
2016-05-30T09:39:43.169Z,55
2016-05-30T09:40:43.907Z,60
2016-05-30T09:41:43.050Z,65
2016-05-30T09:42:43.209Z,70
2016-05-30T09:43:43.244Z,75
2016-05-30T09:44:43.090Z,80
2016-05-30T09:45:43.263Z,85
2016-05-30T09:46:43.346Z,90
2016-05-30T09:47:43.160Z,95
2016-05-30T09:48:43.334Z,100
2016-05-30T09:49:43.213Z,115
2016-05-30T09:50:43.387Z,125
2016-05-30T09:51:43.140Z,145
2016-05-30T09:52:44.236Z,160
2016-05-30T09:53:43.160Z,180
2016-05-30T09:54:43.319Z,200
2016-05-30T09:55:43.525Z,210
2016-05-30T09:56:43.512Z,220
2016-05-30T09:57:43.406Z,225
2016-05-30T09:58:43.423Z,220
2016-05-30T09:59:43.583Z,215
2016-05-30T10:00:43.461Z,210
2016-05-30T10:01:43.182Z,230
2016-05-30T10:02:43.653Z,270
2016-05-30T10:03:43.687Z,315
2016-05-30T10:04:43.550Z,325
2016-05-30T10:05:43.709Z,320
2016-05-30T10:06:43.805Z,305
2016-05-30T10:07:43.605Z,295
2016-05-30T10:08:43.623Z,280
2016-05-30T10:09:43.658Z,290
2016-05-30T10:10:43.831Z,280
2016-05-30T10:11:43.850Z,250
2016-05-30T10:12:43.900Z,240
2016-05-30T10:13:43.746Z,230
2016-05-30T10:14:43.764Z,220
2016-05-30T10:15:43.939Z,210
2016-05-30T10:16:43.957Z,200
2016-05-30T10:17:44.007Z,190
2016-05-30T10:18:43.852Z,170
2016-05-30T10:19:44.059Z,165
2016-05-30T10:20:43.749Z,195
2016-05-30T10:21:44.251Z,215
2016-05-30T10:22:44.895Z,200
2016-05-30T10:23:44.132Z,170
2016-05-30T10:24:44.198Z,145
2016-05-30T10:25:44.278Z,125
2016-05-30T10:26:44.203Z,110
2016-05-30T10:27:44.065Z,105
2016-05-30T10:28:44.254Z,110
2016-05-30T10:29:44.117Z,115
2016-05-30T10:30:44.151Z,110
2016-05-30T10:31:44.309Z,100
2016-05-30T10:32:44.312Z,90
2016-05-30T10:33:44.347Z,80
2016-05-30T10:34:44.395Z,75
2016-05-30T10:35:44.258Z,70
2016-05-30T10:36:44.417Z,70
2016-05-30T10:37:44.576Z,80
2016-05-30T10:38:44.485Z,90
2016-05-30T10:39:44.472Z,95
2016-05-30T10:40:44.521Z,100
2016-05-30T10:41:44.540Z,95
2016-05-30T10:42:44.558Z,90
2016-05-30T10:43:44.452Z,80
2016-05-30T10:44:44.611Z,80
2016-05-30T10:45:44.613Z,80
2016-05-30T10:46:44.521Z,80
2016-05-30T10:47:44.650Z,75
2016-05-30T10:48:44.683Z,80
2016-05-30T10:49:44.732Z,95
2016-05-30T10:50:44.423Z,120
2016-05-30T10:51:44.802Z,130
2016-05-30T10:52:45.944Z,125
2016-05-30T10:53:44.651Z,115
2016-05-30T10:54:44.654Z,110
2016-05-30T10:55:44.562Z,105
2016-05-30T10:56:44.862Z,100
2016-05-30T10:57:44.912Z,95
2016-05-30T10:58:44.945Z,95
2016-05-30T10:59:44.792Z,110
2016-05-30T11:00:44.653Z,125
2016-05-30T11:01:44.984Z,135
2016-05-30T11:02:44.878Z,140
2016-05-30T11:03:44.864Z,135
2016-05-30T11:04:45.055Z,135
2016-05-30T11:05:44.933Z,130
2016-05-30T11:06:45.153Z,125
2016-05-30T11:07:45.297Z,115
2016-05-30T11:08:44.972Z,105
2016-05-30T11:09:45.005Z,95
2016-05-30T11:10:45.024Z,85
2016-05-30T11:11:45.214Z,90
2016-05-30T11:12:45.202Z,105
2016-05-30T11:13:45.250Z,105
2016-05-30T11:14:45.269Z,90
2016-05-30T11:15:45.288Z,75
2016-05-30T11:16:45.321Z,65
2016-05-30T11:17:45.355Z,65
2016-05-30T11:18:45.374Z,65
2016-05-30T11:19:45.377Z,65
2016-05-30T11:20:45.238Z,55
2016-05-30T11:21:46.335Z,60
2016-05-30T11:22:45.619Z,65
2016-05-30T11:23:45.482Z,65
2016-05-30T11:24:45.327Z,65
2016-05-30T11:25:45.065Z,65
2016-05-30T11:26:45.535Z,70
2016-05-30T11:27:45.554Z,70
2016-05-30T11:28:45.587Z,90
2016-05-30T11:29:45.591Z,125
2016-05-30T11:30:45.625Z,160
2016-05-30T11:31:45.659Z,190
2016-05-30T11:32:45.520Z,195
2016-05-30T11:33:45.679Z,165
2016-05-30T11:34:45.729Z,130
2016-05-30T11:35:45.717Z,120
2016-05-30T11:36:46.328Z,130
2016-05-30T11:37:46.284Z,150
2016-05-30T11:38:45.802Z,175
2016-05-30T11:39:45.821Z,175
2016-05-30T11:40:45.542Z,150
2016-05-30T11:41:45.872Z,145
2016-05-30T11:42:45.875Z,155
2016-05-30T11:43:45.738Z,165
2016-05-30T11:44:45.803Z,145
2016-05-30T11:45:45.976Z,135
2016-05-30T11:46:45.844Z,130
2016-05-30T11:47:45.914Z,140
2016-05-30T11:48:46.109Z,160
2016-05-30T11:49:45.975Z,170
2016-05-30T11:50:46.161Z,150
2016-05-30T11:51:46.530Z,130
2016-05-30T11:52:46.181Z,135
2016-05-30T11:53:46.112Z,125
2016-05-30T11:54:46.138Z,120
2016-05-30T11:55:46.316Z,145
2016-05-30T11:56:46.321Z,165
2016-05-30T11:57:46.233Z,185
2016-05-30T11:58:46.379Z,210
2016-05-30T11:59:46.291Z,220
2016-05-30T12:00:46.326Z,235
2016-05-30T12:01:46.362Z,235
2016-05-30T12:02:46.475Z,220
2016-05-30T12:03:46.573Z,195
2016-05-30T12:04:46.451Z,170
2016-05-30T12:05:46.658Z,150
2016-05-30T12:06:47.739Z,160
2016-05-30T12:07:46.148Z,185
2016-05-30T12:08:46.667Z,190
2016-05-30T12:09:46.623Z,165
2016-05-30T12:10:46.688Z,130
2016-05-30T12:11:46.566Z,115
2016-05-30T12:12:46.568Z,120
2016-05-30T12:13:46.556Z,125
2016-05-30T12:14:46.605Z,130
2016-05-30T12:15:46.623Z,150
2016-05-30T12:16:46.658Z,150
2016-05-30T12:17:46.848Z,170
2016-05-30T12:19:00.914Z,230
2016-05-30T12:19:46.884Z,255
2016-05-30T12:20:46.903Z,240
2016-05-30T12:21:46.781Z,245
2016-05-30T12:22:47.142Z,200
2016-05-30T12:23:46.958Z,180
2016-05-30T12:24:46.976Z,195
2016-05-30T12:25:46.853Z,230
2016-05-30T12:26:47.028Z,295
2016-05-30T12:27:47.063Z,290
2016-05-30T12:28:46.908Z,325
2016-05-30T12:29:47.099Z,325
2016-05-30T12:30:46.977Z,375
2016-05-30T12:31:47.152Z,340
2016-05-30T12:32:47.169Z,300
2016-05-30T12:33:47.063Z,345
2016-05-30T12:34:47.221Z,365
2016-05-30T12:36:47.352Z,285
2016-05-30T12:37:47.558Z,270
2016-05-30T12:38:47.138Z,310
2016-05-30T12:39:47.016Z,305
2016-05-30T12:41:01.426Z,320
2016-05-30T12:41:47.209Z,295
2016-05-30T12:42:47.415Z,240
2016-05-30T12:43:47.465Z,240
2016-05-30T12:44:47.468Z,290
2016-05-30T12:45:47.532Z,305
2016-05-30T12:46:47.379Z,335
2016-05-30T12:47:47.209Z,325
2016-05-30T12:48:47.588Z,320
2016-05-30T12:49:47.590Z,320
2016-05-30T12:50:47.546Z,320
2016-05-30T12:51:47.736Z,320
2016-05-30T12:52:47.411Z,320
2016-05-30T12:53:47.554Z,310
2016-05-30T12:54:47.541Z,330
2016-05-30T12:55:47.716Z,320
2016-05-30T12:56:47.594Z,315
2016-05-30T12:57:47.456Z,320
2016-05-30T12:58:47.786Z,320
2016-05-30T12:59:47.680Z,260
2016-05-30T13:00:47.854Z,310
2016-05-30T13:01:47.622Z,300
2016-05-30T13:02:47.719Z,300
2016-05-30T13:03:47.924Z,300
2016-05-30T13:04:47.927Z,275
2016-05-30T13:05:47.821Z,295
2016-05-30T13:06:48.277Z,290
2016-05-30T13:07:48.827Z,290
2016-05-30T13:08:48.032Z,290
2016-05-30T13:09:48.066Z,290
2016-05-30T13:10:48.100Z,290
2016-05-30T13:11:48.118Z,295
2016-05-30T13:12:48.121Z,295
2016-05-30T13:13:48.154Z,310
2016-05-30T13:14:48.189Z,310
2016-05-30T13:15:48.207Z,310
2016-05-30T13:16:48.225Z,310
2016-05-30T13:17:51.275Z,305
2016-05-30T13:18:48.121Z,300
2016-05-30T13:19:48.311Z,305
2016-05-30T13:20:48.345Z,300
2016-05-30T13:21:48.661Z,310
2016-05-30T13:22:48.507Z,300
2016-05-30T13:23:48.384Z,305
2016-05-30T13:24:48.466Z,300
2016-05-30T13:25:48.453Z,300
2016-05-30T13:26:48.471Z,310
2016-05-30T13:27:48.349Z,310
2016-05-30T13:28:48.367Z,295
2016-05-30T13:29:48.432Z,305
2016-05-30T13:30:48.575Z,290
2016-05-30T13:31:48.610Z,320
2016-05-30T13:32:48.455Z,325
2016-05-30T13:33:48.522Z,330
2016-05-30T13:34:48.868Z,330
2016-05-30T13:35:48.698Z,325
2016-05-30T13:36:49.092Z,320
2016-05-30T13:37:49.438Z,315
2016-05-30T13:38:48.785Z,310
2016-05-30T13:39:48.803Z,310
2016-05-30T13:40:48.868Z,300
2016-05-30T13:41:48.715Z,305
2016-05-30T13:42:48.921Z,205
2016-05-30T13:43:48.907Z,305
2016-05-30T13:44:48.926Z,250
2016-05-30T13:45:48.944Z,310
2016-05-30T13:46:49.009Z,305
2016-05-30T13:47:49.012Z,305
2016-05-30T13:48:49.108Z,305
2016-05-30T13:49:48.909Z,310
2016-05-30T13:50:49.098Z,310
2016-05-30T13:51:49.210Z,320
2016-05-30T13:52:49.494Z,325
2016-05-30T13:53:49.153Z,330
2016-05-30T13:54:49.218Z,330
2016-05-30T13:55:49.237Z,335
2016-05-30T13:56:49.239Z,340
2016-05-30T13:57:49.258Z,345
2016-05-30T13:58:49.136Z,360
2016-05-30T13:59:49.310Z,360
2016-05-30T14:00:49.328Z,350
2016-05-30T14:01:49.361Z,370
2016-05-30T14:02:49.380Z,360
2016-05-30T14:03:49.446Z,365
2016-05-30T14:04:49.308Z,355
2016-05-30T14:05:49.466Z,280
2016-05-30T14:06:49.344Z,245
2016-05-30T14:07:49.972Z,240
2016-05-30T14:08:49.224Z,250
2016-05-30T14:09:49.555Z,325
2016-05-30T14:10:49.590Z,225
2016-05-30T14:11:49.468Z,205
2016-05-30T14:12:49.610Z,195
2016-05-30T14:13:49.722Z,295
2016-05-30T14:14:49.522Z,210
2016-05-30T14:15:49.729Z,215
2016-05-30T14:16:49.590Z,340
2016-05-30T14:17:49.468Z,340
2016-05-30T14:18:49.782Z,345